Time;durP1;ratioP1;P1;durP2;ratioP2;P2;SDS_P1;SDS_P2;PMS_P1;PMS_P2;Temp;Humidity;BMP_temperature;BMP_pressure;BME280_temperature;BME280_humidity;BME280_pressure;Samples;Min_cycle;Max_cycle;Signal;HPM_P1;HPM_P2
2023/11/30 00:01:52;;;;;;;15.77;11.80;;;;;;;4.29;99.75;99844.25;5073445;28;20028;-77
2023/11/30 00:04:18;;;;;;;24.45;20.30;;;;;;;3.95;99.41;99796.31;5060717;28;20029;-78
2023/11/30 00:06:43;;;;;;;14.27;10.70;;;;;;;4.46;97.78;99863.38;5053672;28;20097;-77
2023/11/30 00:09:08;;;;;;;16.10;11.02;;;;;;;4.38;98.26;99848.47;5054771;28;20044;-78
2023/11/30 00:11:34;;;;;;;15.70;10.45;;;;;;;4.41;99.04;99870.03;5072924;28;20056;-79
2023/11/30 00:13:59;;;;;;;12.25;7.28;;;;;;;4.54;98.74;99869.38;5073011;28;20588;-78
2023/11/30 00:16:25;;;;;;;10.13;5.78;;;;;;;4.58;97.28;99869.84;5072640;28;20497;-79
2023/11/30 00:18:50;;;;;;;40.63;36.25;;;;;;;4.75;94.82;99884.47;5071829;28;20025;-78
2023/11/30 00:21:16;;;;;;;13.90;9.45;;;;;;;4.56;96.36;99887.69;5071945;28;20056;-79
2023/11/30 00:23:41;;;;;;;39.15;27.75;;;;;;;4.34;97.86;99869.13;5071609;28;20036;-78
2023/11/30 00:26:06;;;;;;;34.45;24.05;;;;;;;4.02;98.76;99844.75;5071637;28;20479;-79
2023/11/30 00:28:32;;;;;;;108.68;65.70;;;;;;;4.09;99.04;99875.69;5072072;28;20449;-78
2023/11/30 00:30:57;;;;;;;98.10;53.70;;;;;;;3.68;100.00;99868.16;5072031;28;20453;-78
2023/11/30 00:33:23;;;;;;;48.97;26.92;;;;;;;3.60;100.00;99876.97;5071685;28;20037;-78
2023/11/30 00:35:48;;;;;;;45.65;24.70;;;;;;;3.69;100.00;99890.91;5071844;28;20077;-79
2023/11/30 00:38:14;;;;;;;35.33;20.50;;;;;;;3.86;99.92;99889.72;5053781;28;20098;-79
2023/11/30 00:40:39;;;;;;;58.40;33.40;;;;;;;3.99;100.00;99907.59;5053284;28;20042;-79
2023/11/30 00:43:06;;;;;;;23.10;13.77;;;;;;;4.19;99.27;99944.88;5071414;28;20035;-78
2023/11/30 00:45:31;;;;;;;30.70;19.40;;;;;;;4.28;99.26;99943.75;5071186;28;20028;-79
2023/11/30 00:47:57;;;;;;;22.48;14.00;;;;;;;4.00;99.40;99919.78;5053627;28;20024;-80
2023/11/30 00:50:22;;;;;;;9.25;5.72;;;;;;;4.00;98.59;99930.34;5071235;28;20595;-79
2023/11/30 00:52:47;;;;;;;8.73;5.03;;;;;;;3.71;98.62;99920.56;5071249;28;20450;-80
2023/11/30 00:55:13;;;;;;;8.63;5.28;;;;;;;3.71;98.44;99933.75;5071188;28;20078;-78
2023/11/30 00:57:38;;;;;;;8.40;5.60;;;;;;;3.92;95.87;99939.16;5053282;28;20687;-79
2023/11/30 01:00:05;;;;;;;8.32;5.35;;;;;;;3.96;96.31;99940.47;5065448;28;20028;-79
2023/11/30 01:02:32;;;;;;;10.20;5.65;;;;;;;4.05;94.95;99948.28;5070054;28;20421;-77
2023/11/30 01:04:57;;;;;;;8.32;5.53;;;;;;;4.13;95.90;99966.69;5070153;28;20033;-78
2023/11/30 01:07:23;;;;;;;11.10;6.15;;;;;;;3.75;97.39;99940.28;5070900;28;20066;-78
2023/11/30 01:09:49;;;;;;;14.65;8.52;;;;;;;3.59;99.23;99944.69;5052783;28;20060;-78
2023/11/30 01:12:14;;;;;;;8.75;5.53;;;;;;;3.89;98.32;99960.63;5070828;28;20063;-78
2023/11/30 01:14:41;;;;;;;9.23;5.63;;;;;;;3.61;100.00;99974.34;5071209;28;20031;-78
2023/11/30 01:17:11;;;;;;;8.18;5.53;;;;;;;3.06;100.00;99922.63;5070597;28;20043;-80
2023/11/30 01:19:36;;;;;;;8.77;5.70;;;;;;;3.49;99.07;99944.09;5036477;28;20072;-79
2023/11/30 01:22:02;;;;;;;11.68;6.85;;;;;;;3.73;97.61;99966.03;5068680;28;20113;-79
2023/11/30 01:24:27;;;;;;;10.82;6.90;;;;;;;3.61;100.00;99941.88;5070934;28;20024;-79
2023/11/30 01:26:53;;;;;;;54.83;39.67;;;;;;;3.46;100.00;99964.75;5070737;28;20464;-79
2023/11/30 01:29:18;;;;;;;98.57;74.60;;;;;;;3.33;100.00;99958.22;5073395;28;20008;-79
2023/11/30 01:31:44;;;;;;;40.38;30.50;;;;;;;3.07;100.00;99905.03;5070342;28;20028;-79
2023/11/30 01:34:09;;;;;;;8.82;6.25;;;;;;;3.22;100.00;99971.78;5052585;28;20058;-78
2023/11/30 01:36:35;;;;;;;8.48;5.45;;;;;;;2.63;100.00;99932.72;5070470;28;20474;-78
2023/11/30 01:39:01;;;;;;;9.55;6.28;;;;;;;2.90;100.00;99991.19;5069747;28;20110;-78
2023/11/30 01:41:26;;;;;;;8.85;6.05;;;;;;;2.94;100.00;100000.41;5052134;28;20041;-78
2023/11/30 01:43:52;;;;;;;21.55;15.07;;;;;;;3.08;100.00;99977.78;5070072;28;20107;-79
2023/11/30 01:46:17;;;;;;;17.83;11.75;;;;;;;3.27;99.77;99984.44;5051956;28;20036;-78
2023/11/30 01:48:44;;;;;;;11.55;7.95;;;;;;;3.24;99.78;100005.88;5069943;28;20479;-80
2023/11/30 01:51:09;;;;;;;62.70;40.35;;;;;;;3.33;99.64;99987.22;5069666;28;20081;-78
2023/11/30 01:53:36;;;;;;;40.60;25.98;;;;;;;2.98;100.00;99994.66;5069813;28;20032;-80
2023/11/30 01:56:02;;;;;;;14.50;9.77;;;;;;;3.42;100.00;100022.25;5069682;28;20028;-79
2023/11/30 01:58:29;;;;;;;28.45;18.75;;;;;;;3.43;100.00;100013.34;5070014;28;20024;-79
2023/11/30 02:00:59;;;;;;;15.68;9.00;;;;;;;3.65;99.98;100034.66;5051668;28;20031;-80
2023/11/30 02:03:25;;;;;;;15.25;9.70;;;;;;;3.55;97.98;100027.78;5069962;28;20024;-78
2023/11/30 02:05:51;;;;;;;13.50;8.82;;;;;;;3.33;98.12;100008.31;5069715;28;20123;-79
2023/11/30 02:08:17;;;;;;;14.70;9.27;;;;;;;3.26;99.28;100006.53;5069377;28;20557;-79
2023/11/30 02:10:43;;;;;;;14.65;8.73;;;;;;;3.33;99.30;100028.56;5051257;28;20028;-81
2023/11/30 02:13:08;;;;;;;13.95;8.85;;;;;;;3.19;99.71;100017.75;5069147;28;20107;-79
2023/11/30 02:15:34;;;;;;;13.23;8.00;;;;;;;3.08;99.23;100010.22;5068145;28;20043;-79
2023/11/30 02:17:59;;;;;;;12.52;7.88;;;;;;;3.11;100.00;100009.91;5068905;28;20028;-79
2023/11/30 02:20:25;;;;;;;16.40;9.43;;;;;;;3.13;98.71;99996.56;5032055;28;20046;-79
2023/11/30 02:22:50;;;;;;;21.42;11.45;;;;;;;3.19;98.77;100016.94;5047958;28;20091;-79
2023/11/30 02:25:16;;;;;;;25.70;14.25;;;;;;;2.61;100.00;100013.69;5049574;28;20067;-79
2023/11/30 02:27:41;;;;;;;16.10;9.80;;;;;;;2.49;100.00;100028.19;5049285;28;20028;-78
2023/11/30 02:30:07;;;;;;;15.98;10.07;;;;;;;2.45;100.00;100018.97;5049316;28;20025;-79
2023/11/30 02:32:32;;;;;;;13.63;8.60;;;;;;;2.77;100.00;100049.69;5049178;28;20036;-79
2023/11/30 02:35:00;;;;;;;17.00;9.88;;;;;;;3.17;100.00;100064.56;5049535;28;20032;-79
2023/11/30 02:37:26;;;;;;;17.45;11.13;;;;;;;3.07;100.00;100066.56;5031426;28;20025;-79
2023/11/30 02:39:51;;;;;;;12.57;8.73;;;;;;;2.20;100.00;100032.16;5048975;28;20402;-79
2023/11/30 02:42:17;;;;;;;13.68;9.25;;;;;;;2.48;100.00;100022.09;5049453;28;20041;-78
2023/11/30 02:44:42;;;;;;;11.88;8.23;;;;;;;2.41;100.00;100014.06;5049114;28;20031;-78
2023/11/30 02:47:07;;;;;;;12.45;8.45;;;;;;;2.46;100.00;100060.13;5049462;28;20036;-80
2023/11/30 02:49:33;;;;;;;15.68;8.43;;;;;;;2.28;100.00;100066.38;5048992;28;20021;-79
2023/11/30 02:51:59;;;;;;;12.07;8.00;;;;;;;1.66;100.00;100029.19;5049423;28;20036;-78
2023/11/30 02:54:25;;;;;;;92.13;47.20;;;;;;;2.29;100.00;100075.91;5031140;28;20029;-80
2023/11/30 02:56:50;;;;;;;16.40;10.45;;;;;;;2.18;100.00;100031.50;5049144;28;20078;-79
2023/11/30 02:59:16;;;;;;;16.60;10.27;;;;;;;2.61;100.00;100061.88;5048932;28;20033;-79
2023/11/30 03:01:43;;;;;;;17.20;11.65;;;;;;;2.72;100.00;100068.63;5048844;28;20037;-80
2023/11/30 03:04:08;;;;;;;16.25;10.75;;;;;;;2.56;100.00;100037.06;5049396;28;20083;-78
2023/11/30 03:06:34;;;;;;;19.70;12.65;;;;;;;2.61;100.00;100055.81;5049185;28;20975;-79
2023/11/30 03:08:59;;;;;;;17.92;12.02;;;;;;;2.25;100.00;99993.03;5031232;28;20025;-79
2023/11/30 03:11:24;;;;;;;20.58;12.90;;;;;;;2.35;100.00;100041.03;5030907;28;20037;-79
2023/11/30 03:13:50;;;;;;;19.42;12.05;;;;;;;2.46;100.00;100031.16;5047496;28;20033;-79
2023/11/30 03:16:23;;;;;;;25.92;17.48;;;;;;;2.40;100.00;100048.44;5030476;28;20029;-79
2023/11/30 03:18:49;;;;;;;18.90;12.10;;;;;;;2.38;100.00;100074.91;5048351;28;20035;-79
2023/11/30 03:21:19;;;;;;;17.17;11.20;;;;;;;2.60;100.00;100083.13;5067828;28;20020;-79
2023/11/30 03:23:45;;;;;;;20.83;13.98;;;;;;;2.50;100.00;100058.78;5068438;28;20116;-79
2023/11/30 03:26:10;;;;;;;20.90;15.80;;;;;;;2.75;100.00;100065.66;5068875;28;20854;-79
2023/11/30 03:28:37;;;;;;;17.85;13.23;;;;;;;2.60;100.00;100054.19;5072367;28;20047;-79
2023/11/30 03:31:02;;;;;;;18.17;11.70;;;;;;;2.72;100.00;100084.44;5072599;28;20028;-77
2023/11/30 03:33:28;;;;;;;21.42;12.20;;;;;;;2.69;100.00;100105.81;5052573;28;20087;-78
2023/11/30 03:35:53;;;;;;;18.58;11.32;;;;;;;2.51;100.00;100086.75;5069186;28;20025;-78
2023/11/30 03:38:19;;;;;;;16.52;11.32;;;;;;;2.44;100.00;100096.31;5072618;28;20089;-78
2023/11/30 03:40:45;;;;;;;15.77;11.38;;;;;;;2.26;100.00;100099.09;5071939;28;20035;-78
2023/11/30 03:43:10;;;;;;;16.42;11.85;;;;;;;2.67;100.00;100118.31;5072194;28;20123;-78
2023/11/30 03:45:36;;;;;;;18.98;12.20;;;;;;;2.26;100.00;100068.34;5054436;28;20036;-78
2023/11/30 03:48:01;;;;;;;19.10;12.45;;;;;;;2.64;100.00;100129.22;5072363;28;20111;-78
2023/11/30 03:50:27;;;;;;;19.88;12.55;;;;;;;2.53;100.00;100106.66;5072563;28;20028;-78
2023/11/30 03:52:52;;;;;;;23.08;13.07;;;;;;;2.42;100.00;100094.66;5071842;28;20037;-78
2023/11/30 03:55:19;;;;;;;19.48;13.43;;;;;;;2.61;100.00;100103.19;5071657;28;20111;-78
2023/11/30 03:57:44;;;;;;;19.45;13.25;;;;;;;2.38;100.00;100103.88;5054252;28;20476;-77
2023/11/30 04:00:14;;;;;;;20.67;14.13;;;;;;;2.38;100.00;100080.19;5072170;28;20485;-78
2023/11/30 04:02:42;;;;;;;31.08;20.10;;;;;;;2.49;100.00;100121.13;5071599;28;20064;-78
2023/11/30 04:05:10;;;;;;;29.75;18.67;;;;;;;2.48;100.00;100123.94;5072393;28;20037;-77
2023/11/30 04:07:37;;;;;;;27.77;18.65;;;;;;;2.16;100.00;100094.00;5072201;28;20056;-78
2023/11/30 04:10:03;;;;;;;25.52;16.50;;;;;;;2.59;100.00;100136.75;5071687;28;20098;-78
2023/11/30 04:12:29;;;;;;;23.48;15.00;;;;;;;2.52;100.00;100120.00;5071585;28;20028;-79
2023/11/30 04:14:54;;;;;;;22.55;14.60;;;;;;;2.46;100.00;100128.56;5053699;28;20093;-78
2023/11/30 04:17:19;;;;;;;20.92;13.75;;;;;;;2.36;100.00;100137.41;5053868;28;20082;-78
2023/11/30 04:19:45;;;;;;;20.63;13.85;;;;;;;2.49;100.00;100154.53;5071625;28;20527;-79
2023/11/30 04:22:10;;;;;;;20.70;13.57;;;;;;;2.16;100.00;100100.06;5053478;28;20036;-78
2023/11/30 04:24:36;;;;;;;24.20;15.25;;;;;;;1.88;100.00;100107.44;5071691;28;20085;-77
2023/11/30 04:27:01;;;;;;;22.17;14.80;;;;;;;2.13;100.00;100115.38;5071696;28;20037;-79
2023/11/30 04:29:28;;;;;;;25.23;14.70;;;;;;;2.28;100.00;100133.97;5071356;28;20032;-79
2023/11/30 04:31:53;;;;;;;39.28;24.90;;;;;;;2.16;100.00;100157.13;5071653;28;20029;-78
2023/11/30 04:34:19;;;;;;;36.45;21.83;;;;;;;2.16;100.00;100146.59;5071245;28;20452;-78
2023/11/30 04:36:44;;;;;;;111.72;66.95;;;;;;;2.17;100.00;100135.94;5071217;28;20455;-77
2023/11/30 04:39:11;;;;;;;33.72;22.58;;;;;;;1.91;100.00;100162.34;5069795;28;20028;-79
2023/11/30 04:41:39;;;;;;;42.30;26.88;;;;;;;2.11;100.00;100159.44;5071233;28;20086;-78
2023/11/30 04:44:05;;;;;;;49.10;30.67;;;;;;;2.18;100.00;100173.59;5070960;28;20116;-79
2023/11/30 04:46:30;;;;;;;46.92;32.38;;;;;;;2.17;100.00;100201.72;5053096;28;20123;-79
2023/11/30 04:48:58;;;;;;;45.58;30.88;;;;;;;2.29;100.00;100188.22;5071049;28;20558;-79
2023/11/30 04:51:24;;;;;;;43.10;27.42;;;;;;;2.36;100.00;100195.31;5070620;28;20082;-79
2023/11/30 04:53:50;;;;;;;48.92;31.60;;;;;;;2.24;100.00;100201.88;5052728;28;20180;-79
2023/11/30 04:56:16;;;;;;;41.78;29.25;;;;;;;2.20;100.00;100190.03;5070301;28;20558;-78
2023/11/30 04:58:41;;;;;;;38.55;26.23;;;;;;;2.40;100.00;100212.44;5053032;28;20598;-77
2023/11/30 05:01:07;;;;;;;34.05;24.38;;;;;;;2.39;100.00;100179.22;5070641;28;20028;-77
2023/11/30 05:03:32;;;;;;;32.97;22.77;;;;;;;2.58;100.00;100214.94;5070531;28;20021;-78
2023/11/30 05:05:58;;;;;;;30.45;22.33;;;;;;;2.66;100.00;100215.94;5052363;28;20029;-79
2023/11/30 05:08:23;;;;;;;38.20;27.98;;;;;;;2.38;100.00;100177.56;5070022;28;20077;-78
2023/11/30 05:10:49;;;;;;;36.50;26.15;;;;;;;2.49;100.00;100188.75;5070207;28;20092;-78
2023/11/30 05:13:14;;;;;;;27.80;19.40;;;;;;;2.36;100.00;100210.28;5070121;28;20035;-79
2023/11/30 05:15:40;;;;;;;25.50;16.88;;;;;;;2.10;100.00;100189.34;5070399;28;20028;-80
2023/11/30 05:18:06;;;;;;;23.83;16.67;;;;;;;2.48;100.00;100192.38;5070398;28;20056;-80
2023/11/30 05:20:31;;;;;;;31.83;20.92;;;;;;;2.48;100.00;100223.97;5070307;28;20048;-78
2023/11/30 05:22:57;;;;;;;31.10;19.63;;;;;;;2.42;100.00;100221.00;5069931;28;20108;-79
2023/11/30 05:25:22;;;;;;;37.67;21.80;;;;;;;1.89;100.00;100214.28;5069843;28;20109;-78
2023/11/30 05:27:48;;;;;;;36.47;22.50;;;;;;;1.87;100.00;100247.78;5070001;28;20693;-80
2023/11/30 05:30:13;;;;;;;32.60;20.95;;;;;;;1.25;100.00;100237.44;5070758;28;20024;-78
2023/11/30 05:32:39;;;;;;;29.63;20.20;;;;;;;1.32;100.00;100259.47;5052012;28;20447;-79
2023/11/30 05:35:05;;;;;;;29.73;17.73;;;;;;;1.63;100.00;100250.31;5052147;28;20136;-79
2023/11/30 05:37:31;;;;;;;27.42;17.02;;;;;;;1.53;100.00;100266.19;5069652;28;20021;-79
2023/11/30 05:39:58;;;;;;;26.00;16.88;;;;;;;1.35;100.00;100216.31;5069911;28;20032;-80
2023/11/30 05:42:24;;;;;;;28.75;17.02;;;;;;;1.71;100.00;100231.94;5069409;28;20028;-79
2023/11/30 05:44:49;;;;;;;23.88;14.93;;;;;;;1.70;100.00;100260.06;5069133;28;20035;-79
2023/11/30 05:47:15;;;;;;;27.73;16.70;;;;;;;1.37;100.00;100257.22;5069887;28;20025;-79
2023/11/30 05:49:40;;;;;;;22.70;15.40;;;;;;;1.25;100.00;100258.47;5069569;28;20552;-81
2023/11/30 05:52:06;;;;;;;25.83;16.10;;;;;;;1.07;100.00;100229.59;5069632;28;20035;-79
2023/11/30 05:54:31;;;;;;;25.00;15.77;;;;;;;1.21;100.00;100236.09;5069387;28;20029;-78
2023/11/30 05:56:57;;;;;;;23.20;15.20;;;;;;;1.51;100.00;100224.31;5069238;28;20024;-78
2023/11/30 05:59:22;;;;;;;27.55;16.75;;;;;;;1.81;100.00;100261.56;5069557;28;20043;-78
2023/11/30 06:01:48;;;;;;;33.03;18.90;;;;;;;2.14;100.00;100257.25;5069062;28;20370;-79
2023/11/30 06:04:13;;;;;;;34.25;17.95;;;;;;;2.10;100.00;100257.75;5050998;28;20093;-79
2023/11/30 06:06:40;;;;;;;82.68;54.83;;;;;;;2.42;100.00;100288.63;5052741;28;20032;-79
2023/11/30 06:09:06;;;;;;;59.95;39.92;;;;;;;1.80;100.00;100238.91;5050766;28;20049;-79
2023/11/30 06:11:32;;;;;;;42.95;26.15;;;;;;;2.27;100.00;100292.81;5053221;28;20103;-80
2023/11/30 06:13:57;;;;;;;34.97;21.58;;;;;;;1.94;100.00;100264.59;5069235;28;20150;-78
2023/11/30 06:16:23;;;;;;;44.15;26.77;;;;;;;2.01;100.00;100260.34;5068668;28;20095;-79
2023/11/30 06:18:48;;;;;;;35.88;20.98;;;;;;;1.97;100.00;100251.13;5068568;28;20033;-78
2023/11/30 06:21:13;;;;;;;38.58;21.05;;;;;;;2.26;100.00;100284.13;5068014;28;20060;-80
2023/11/30 06:23:39;;;;;;;42.05;25.20;;;;;;;2.42;100.00;100257.03;5069853;28;20044;-78
2023/11/30 06:26:06;;;;;;;50.22;33.83;;;;;;;2.63;100.00;100269.72;5069019;28;20641;-78
2023/11/30 06:28:32;;;;;;;30.77;19.90;;;;;;;2.61;100.00;100266.44;5069666;28;20063;-77
2023/11/30 06:30:57;;;;;;;30.25;23.25;;;;;;;2.89;100.00;100239.81;5051074;28;20032;-78
2023/11/30 06:33:23;;;;;;;78.40;54.53;;;;;;;2.85;100.00;100251.66;5069014;28;20089;-79
2023/11/30 06:35:48;;;;;;;134.77;88.22;;;;;;;3.11;100.00;100275.22;5069283;28;20059;-77
2023/11/30 06:38:13;;;;;;;109.00;69.90;;;;;;;10.42;100.00;100272.19;5068847;28;20036;-77
2023/11/30 06:40:39;;;;;;;93.10;63.90;;;;;;;11.32;75.33;100294.38;5068669;28;20016;-79
2023/11/30 06:43:04;;;;;;;56.45;41.00;;;;;;;11.33;82.38;100288.00;5068364;28;20029;-77
2023/11/30 06:45:30;;;;;;;51.05;36.50;;;;;;;7.72;77.54;100278.69;5068638;28;20024;-78
2023/11/30 06:47:57;;;;;;;37.42;26.00;;;;;;;6.07;87.52;100284.84;5051253;28;20115;-78
2023/11/30 06:50:22;;;;;;;28.45;22.50;;;;;;;5.57;92.96;100297.75;5069202;28;20612;-78
2023/11/30 06:52:47;;;;;;;23.58;14.90;;;;;;;5.02;95.52;100257.44;5069042;28;20107;-80
2023/11/30 06:55:13;;;;;;;18.70;12.98;;;;;;;4.52;100.00;100278.09;5069434;28;20025;-79
2023/11/30 06:57:38;;;;;;;23.98;17.55;;;;;;;4.21;100.00;100275.47;5069418;28;20020;-78
2023/11/30 07:00:10;;;;;;;34.35;22.65;;;;;;;4.48;100.00;100302.38;5051593;28;20529;-78
2023/11/30 07:02:36;;;;;;;28.95;21.02;;;;;;;4.29;100.00;100300.97;5054097;28;20036;-79
2023/11/30 07:05:04;;;;;;;23.17;14.77;;;;;;;4.34;100.00;100291.56;5073289;28;20082;-80
2023/11/30 07:07:29;;;;;;;22.98;15.68;;;;;;;4.22;100.00;100314.03;5073060;28;20036;-78
2023/11/30 07:09:55;;;;;;;60.78;27.00;;;;;;;4.18;100.00;100275.78;5073305;28;20116;-79
2023/11/30 07:12:20;;;;;;;96.63;44.05;;;;;;;4.18;100.00;100302.19;5072603;28;20028;-78
2023/11/30 07:14:45;;;;;;;42.22;22.33;;;;;;;4.04;100.00;100306.34;5073030;28;20083;-79
2023/11/30 07:17:11;;;;;;;54.03;43.53;;;;;;;4.03;100.00;100294.16;5072833;28;20040;-78
2023/11/30 07:19:39;;;;;;;43.75;32.65;;;;;;;4.09;100.00;100319.88;5072517;28;20068;-78
2023/11/30 07:22:04;;;;;;;42.70;33.42;;;;;;;3.81;100.00;100290.44;5072248;28;20726;-78
2023/11/30 07:24:30;;;;;;;29.85;23.63;;;;;;;4.21;100.00;100322.97;5054440;28;20040;-78
2023/11/30 07:26:56;;;;;;;23.77;16.23;;;;;;;4.32;100.00;100280.34;5072104;28;20537;-78
2023/11/30 07:29:21;;;;;;;25.00;16.25;;;;;;;4.93;100.00;100327.22;5072612;28;20027;-78
2023/11/30 07:31:50;;;;;;;47.22;39.45;;;;;;;4.91;100.00;100345.06;5050224;28;20025;-79
2023/11/30 07:34:15;;;;;;;32.05;21.77;;;;;;;4.65;100.00;100338.28;5072364;28;20040;-78
2023/11/30 07:36:41;;;;;;;21.27;15.25;;;;;;;4.51;100.00;100302.84;5071913;28;20024;-78
2023/11/30 07:39:06;;;;;;;24.98;17.00;;;;;;;4.91;100.00;100300.97;5072305;28;20491;-79
2023/11/30 07:41:32;;;;;;;37.47;21.55;;;;;;;5.37;100.00;100329.19;5060866;28;20047;-80
2023/11/30 07:43:57;;;;;;;17.85;11.18;;;;;;;5.73;100.00;100339.13;5059146;28;20087;-78
2023/11/30 07:46:23;;;;;;;16.50;11.93;;;;;;;5.76;98.48;100323.72;5064201;28;20078;-77
2023/11/30 07:48:48;;;;;;;27.00;18.77;;;;;;;6.15;96.88;100343.00;5072125;28;20025;-79
2023/11/30 07:51:14;;;;;;;19.67;14.63;;;;;;;6.49;95.32;100336.31;5071467;28;20028;-79
2023/11/30 07:53:39;;;;;;;11.98;9.23;;;;;;;6.68;92.69;100327.78;5053732;28;20170;-79
2023/11/30 07:56:05;;;;;;;22.80;16.83;;;;;;;6.80;93.03;100352.81;5071568;28;20017;-79
2023/11/30 07:58:31;;;;;;;25.77;16.00;;;;;;;6.70;93.01;100346.97;5071966;28;20028;-79
2023/11/30 08:00:59;;;;;;;26.67;12.98;;;;;;;7.32;91.27;100372.09;5072299;28;20425;-78
2023/11/30 08:03:25;;;;;;;18.73;11.68;;;;;;;7.39;90.37;100356.22;5071699;28;20151;-78
2023/11/30 08:05:50;;;;;;;16.77;10.05;;;;;;;7.39;87.47;100364.19;5071535;28;20396;-79
2023/11/30 08:08:17;;;;;;;19.23;12.77;;;;;;;7.54;85.71;100386.16;5053392;28;20108;-79
2023/11/30 08:10:43;;;;;;;35.30;31.60;;;;;;;7.54;86.10;100391.47;5053665;28;20526;-78
2023/11/30 08:13:10;;;;;;;37.63;32.05;;;;;;;7.31;88.28;100359.81;5070679;28;20553;-77
2023/11/30 08:15:36;;;;;;;27.17;23.15;;;;;;;7.62;85.88;100394.00;5071305;28;20547;-78
2023/11/30 08:18:01;;;;;;;47.08;42.40;;;;;;;7.88;85.62;100381.94;5053287;28;20115;-77
2023/11/30 08:20:27;;;;;;;40.05;33.95;;;;;;;7.73;87.61;100367.94;5071370;28;20041;-80
2023/11/30 08:22:53;;;;;;;44.85;24.83;;;;;;;7.50;88.75;100384.91;5053037;28;20035;-79
2023/11/30 08:25:18;;;;;;;29.30;17.00;;;;;;;7.53;91.07;100387.16;5071607;28;20036;-79
2023/11/30 08:27:44;;;;;;;21.75;13.98;;;;;;;7.61;88.29;100379.06;5071009;28;20030;-79
2023/11/30 08:30:10;;;;;;;18.70;12.18;;;;;;;7.75;88.84;100385.31;5070686;28;20478;-78
2023/11/30 08:32:39;;;;;;;20.90;11.70;;;;;;;7.95;85.06;100360.75;5060913;28;20036;-79
2023/11/30 08:35:06;;;;;;;18.52;10.75;;;;;;;8.13;83.58;100386.78;5052836;28;20467;-78
2023/11/30 08:37:31;;;;;;;19.25;11.38;;;;;;;8.33;83.83;100379.75;5070596;28;20029;-80
2023/11/30 08:39:58;;;;;;;16.13;10.48;;;;;;;8.29;83.05;100377.69;5070578;28;20025;-78
2023/11/30 08:42:24;;;;;;;15.25;9.80;;;;;;;8.55;86.57;100382.34;5070891;28;20029;-80
2023/11/30 08:44:50;;;;;;;13.73;9.38;;;;;;;8.96;85.23;100384.16;5070562;28;20040;-78
2023/11/30 08:47:15;;;;;;;14.20;9.65;;;;;;;8.74;83.81;100341.72;5070366;28;20028;-79
2023/11/30 08:49:41;;;;;;;14.57;9.73;;;;;;;8.76;84.93;100341.53;5052544;28;20028;-79
2023/11/30 08:52:06;;;;;;;13.85;9.55;;;;;;;9.07;83.05;100359.59;5056843;28;20013;-79
2023/11/30 08:54:31;;;;;;;14.07;9.55;;;;;;;9.16;77.66;100366.38;5063661;28;20029;-81
2023/11/30 08:56:58;;;;;;;15.75;9.85;;;;;;;9.42;78.45;100362.13;5064215;28;20037;-78
2023/11/30 08:59:23;;;;;;;14.32;10.93;;;;;;;9.06;83.04;100331.38;5059656;28;20553;-77
2023/11/30 09:01:49;;;;;;;15.30;9.75;;;;;;;9.03;86.09;100363.69;5060180;28;20099;-79
2023/11/30 09:04:15;;;;;;;14.85;9.70;;;;;;;9.22;82.64;100362.91;5066670;28;20063;-78
2023/11/30 09:06:40;;;;;;;16.05;10.95;;;;;;;9.44;78.80;100339.59;5060521;28;20025;-79
2023/11/30 09:09:06;;;;;;;15.60;10.30;;;;;;;9.56;79.41;100346.97;5057379;28;20029;-77
2023/11/30 09:11:33;;;;;;;17.90;10.30;;;;;;;9.35;81.02;100316.84;5058142;28;20055;-80
2023/11/30 09:13:59;;;;;;;18.33;10.20;;;;;;;9.51;84.49;100310.31;5050544;28;20024;-80
2023/11/30 09:16:25;;;;;;;16.00;10.98;;;;;;;9.79;80.83;100327.91;5067732;28;20394;-80
2023/11/30 09:18:54;;;;;;;18.45;10.98;;;;;;;9.92;79.98;100330.53;5060884;28;20456;-79
2023/11/30 09:21:19;;;;;;;;;;;;;;;9.85;80.17;100335.06;5043162;28;20083;-78
2023/11/30 09:23:44;;;;;;;15.18;9.93;;;;;;;9.95;79.47;100314.16;5059136;28;20445;-79
2023/11/30 09:26:10;;;;;;;17.85;10.68;;;;;;;10.02;78.32;100330.13;5062801;28;20039;-80
2023/11/30 09:28:38;;;;;;;14.43;9.88;;;;;;;9.80;76.71;100268.28;5055868;28;20048;-79
2023/11/30 09:31:04;;;;;;;17.05;10.07;;;;;;;10.43;77.64;100313.81;5055234;28;20497;-79
2023/11/30 09:33:29;;;;;;;15.90;10.18;;;;;;;10.80;73.60;100321.22;5060976;28;20024;-78
2023/11/30 09:35:59;;;;;;;43.10;28.35;;;;;;;11.11;72.46;100296.38;5060883;28;20032;-79
2023/11/30 09:38:25;;;;;;;15.65;11.10;;;;;;;11.52;71.21;100313.72;5067935;28;20020;-79
2023/11/30 09:40:51;;;;;;;16.65;9.88;;;;;;;11.54;68.77;100325.00;5051627;28;20451;-80
2023/11/30 09:43:17;;;;;;;12.27;8.35;;;;;;;11.31;72.41;100300.75;5069331;28;20024;-80
2023/11/30 09:45:45;;;;;;;10.45;7.47;;;;;;;11.39;72.67;100276.47;5069459;28;20093;-79
2023/11/30 09:48:11;;;;;;;17.83;9.75;;;;;;;11.25;72.92;100265.88;5069574;28;20512;-78
2023/11/30 09:50:37;;;;;;;10.85;5.45;;;;;;;10.91;77.39;100279.69;5070003;28;20037;-79
2023/11/30 09:53:02;;;;;;;9.80;5.50;;;;;;;11.14;76.09;100258.59;5051935;28;20025;-78
2023/11/30 09:55:28;;;;;;;7.40;5.00;;;;;;;10.91;76.08;100242.34;5069993;28;20496;-79
2023/11/30 09:57:54;;;;;;;8.32;5.15;;;;;;;10.84;79.46;100221.06;5069726;28;20036;-79
2023/11/30 10:00:20;;;;;;;15.32;7.55;;;;;;;11.38;74.82;100258.78;5069759;28;20029;-79
2023/11/30 10:02:58;;;;;;;8.60;4.95;;;;;;;11.48;74.32;100277.78;5069490;28;20036;-78
2023/11/30 10:05:25;;;;;;;12.13;7.03;;;;;;;11.55;74.95;100259.88;5051619;28;20037;-79
2023/11/30 10:07:51;;;;;;;9.48;5.07;;;;;;;11.17;78.52;100250.13;5068957;28;20024;-78
2023/11/30 10:10:17;;;;;;;10.40;5.30;;;;;;;10.98;78.95;100237.78;5069832;28;20025;-79
2023/11/30 10:12:42;;;;;;;8.48;5.18;;;;;;;10.59;80.02;100207.69;5069545;28;20370;-80
2023/11/30 10:15:09;;;;;;;8.80;5.60;;;;;;;10.70;80.99;100232.84;5070126;28;20068;-80
2023/11/30 10:17:36;;;;;;;13.00;6.57;;;;;;;10.61;79.92;100210.97;5070620;28;20492;-81
2023/11/30 10:20:05;;;;;;;15.77;8.32;;;;;;;11.38;77.60;100242.75;5070434;28;20106;-79
2023/11/30 10:22:31;;;;;;;12.43;6.57;;;;;;;11.61;73.87;100232.28;5070228;28;20068;-79
2023/11/30 10:24:57;;;;;;;9.88;5.80;;;;;;;10.92;77.90;100203.97;5070501;28;20021;-79
2023/11/30 10:27:24;;;;;;;8.55;4.53;;;;;;;11.32;76.27;100254.31;5070298;28;20043;-79
2023/11/30 10:29:51;;;;;;;7.18;4.97;;;;;;;11.65;74.23;100259.38;5052606;28;20029;-80
2023/11/30 10:32:17;;;;;;;10.23;6.03;;;;;;;11.86;75.62;100260.78;5069803;28;20098;-79
2023/11/30 10:34:47;;;;;;;13.95;6.00;;;;;;;11.48;80.74;100252.94;5069261;28;20027;-82
2023/11/30 10:37:18;;;;;;;8.07;5.20;;;;;;;10.97;78.35;100214.78;5069204;28;20032;-80
2023/11/30 10:39:51;;;;;;;6.90;4.72;;;;;;;11.73;75.92;100239.53;5069513;28;20055;-79
2023/11/30 10:42:17;;;;;;;7.53;5.25;;;;;;;11.77;78.02;100224.69;5069460;28;20025;-80
2023/11/30 10:44:46;;;;;;;9.77;5.47;;;;;;;11.73;78.73;100240.38;5069519;28;20036;-79
2023/11/30 10:47:13;;;;;;;11.07;6.90;;;;;;;12.36;74.36;100255.28;5069841;28;20035;-79
2023/11/30 10:49:42;;;;;;;9.50;5.30;;;;;;;12.53;70.45;100249.31;5069592;28;20028;-79
2023/11/30 10:52:10;;;;;;;7.15;5.07;;;;;;;12.02;72.82;100228.16;5069949;28;20032;-80
2023/11/30 10:54:49;;;;;;;8.63;5.45;;;;;;;11.76;74.00;100239.13;5069959;28;20035;-79
2023/11/30 10:57:17;;;;;;;8.13;5.50;;;;;;;11.69;73.67;100201.78;5051720;28;20044;-79
2023/11/30 10:59:47;;;;;;;8.65;5.25;;;;;;;12.29;75.32;100216.31;5070032;28;20028;-80
2023/11/30 11:02:15;;;;;;;7.70;4.65;;;;;;;12.66;73.80;100235.72;5069684;28;20430;-79
2023/11/30 11:04:42;;;;;;;7.18;5.05;;;;;;;12.68;71.79;100230.97;5069479;28;20032;-80
2023/11/30 11:07:10;;;;;;;8.57;5.50;;;;;;;12.79;72.08;100245.41;5069886;28;20017;-79
2023/11/30 11:09:41;;;;;;;7.22;5.03;;;;;;;13.11;69.34;100248.63;5051861;28;20473;-79
2023/11/30 11:12:26;;;;;;;9.50;5.38;;;;;;;13.19;67.43;100253.63;5069345;28;20409;-78